Sunday, October 21, 2018, 10:04 PM EDT
Back to Local

KBGR, Bangor Int'l Airport

Location: Bangor, ME, United States Lat: 44.8
Local Time: 10:04 PM EDT ( 2:04 GMT) Lon: -68.817
Time Zone: US/Eastern Elev: 193 ft

Show me the last for .
Show Decoded

2018-10-21 21:53 METAR KBGR 220153Z 30007G15KT 10SM CLR 02/M09 A2990 RMK AO2 SLP126 T00171089 =
2018-10-21 20:53 METAR KBGR 220053Z 31011KT 10SM CLR 02/M08 A2988 RMK AO2 SLP119 T00221083 =
2018-10-21 19:53 METAR KBGR 212353Z 31006KT 10SM CLR 01/M07 A2985 RMK AO2 SLP111 60000 T00111072
                 10067 20000 51033 =
2018-10-21 18:53 METAR KBGR 212253Z 33008KT 10SM FEW050 01/M07 A2982 RMK AO2 SLP100 T00111067 =
2018-10-21 17:53 METAR KBGR 212153Z 32017G25KT 10SM SCT050 03/M08 A2980 RMK AO2 PK WND 33027/2134
                 SLP092 T00331078 =
2018-10-21 16:53 METAR KBGR 212053Z 32013G21KT 10SM OVC050 05/M06 A2975 RMK AO2 SLP077 BINOVC
                 60000 T00501056 53013 =
2018-10-21 15:53 METAR KBGR 211953Z 32020G27KT 10SM OVC047 05/M06 A2973 RMK AO2 PK WND 32028/1902
                 SLP071 BINOVC P0000 T00501056 =
2018-10-21 14:53 METAR KBGR 211853Z 30014G22KT 10SM OVC045 06/M05 A2972 RMK AO2 PK WND 32026/1838
                 SLP066 T00561050 =
2018-10-21 13:53 METAR KBGR 211753Z 32021G26KT 10SM OVC043 06/M04 A2972 RMK AO2 PK WND 33026/1718
                 SLP063 T00611044 10067 20033 51001 =
2018-10-21 12:53 METAR KBGR 211653Z 31011G21KT 10SM BKN044 OVC130 06/M04 A2972 RMK AO2 SLP063
                 T00611044 =
2018-10-21 11:53 METAR KBGR 211553Z 31016G20KT 10SM BKN044 BKN130 06/M04 A2972 RMK AO2 SLP065
                 T00611044 =
2018-10-21 10:53 METAR KBGR 211453Z 30011G21KT 10SM SCT080 BKN130 06/M04 A2971 RMK AO2 PK WND
                 33026/1412 SLP062 T00611039 51011 =
2018-10-21 09:53 METAR KBGR 211353Z 32013G19KT 10SM FEW080 BKN110 05/M03 A2971 RMK AO2 SLP060
                 T00501028 =
2018-10-21 08:53 METAR KBGR 211253Z 30005KT 10SM FEW075 BKN110 03/M02 A2970 RMK AO2 SLP058
                 T00331022 =
2018-10-21 07:53 METAR KBGR 211153Z 31013KT 10SM FEW075 BKN110 03/M02 A2968 RMK AO2 SLP051
                 T00331017 10033 21017 51029 =
2018-10-21 06:53 METAR KBGR 211053Z 00000KT 10SM FEW075 BKN110 02/M01 A2966 RMK AO2 SLP043
                 T00221011 =
2018-10-21 05:53 METAR KBGR 210953Z 00000KT 10SM FEW075 00/M02 A2963 RMK AO2 SLP033 T00001022 =
2018-10-21 04:53 METAR KBGR 210853Z 00000KT 10SM CLR M01/M02 A2959 RMK AO2 SLP021 T10111022 53008
                 =
2018-10-21 03:53 METAR KBGR 210753Z 00000KT 10SM FEW075 01/M01 A2958 RMK AO2 SLP016 T00061011 =
2018-10-21 02:53 METAR KBGR 210653Z 00000KT 10SM FEW075 01/00 A2957 RMK AO2 SLP014 T00060000 =
2018-10-21 01:53 METAR KBGR 210553Z 00000KT 10SM FEW075 01/01 A2957 RMK AO2 SLP012 T00110006
                 10122 20011 51012 =
2018-10-21 00:53 METAR KBGR 210453Z 00000KT 10SM CLR 02/01 A2957 RMK AO2 SLP012 T00170011
                 401780017 =
2018-10-20 23:53 METAR KBGR 210353Z 00000KT 10SM CLR 03/01 A2955 RMK AO2 SLP008 T00330011 =
2018-10-20 22:53 METAR KBGR 210253Z 00000KT 10SM CLR 06/03 A2953 RMK AO2 SLP001 T00560033 51012 =

Support USWX by starting your Amazon purchase here.